createdAt,value
2023-01-13T00:01:49.120Z,8.82
2023-01-13T00:04:17.189Z,8.80
2023-01-13T00:06:45.470Z,8.79
2023-01-13T00:09:13.643Z,8.78
2023-01-13T00:12:01.030Z,8.78
2023-01-13T00:14:30.370Z,8.77
2023-01-13T00:16:58.470Z,8.76
2023-01-13T00:19:26.609Z,8.75
2023-01-13T00:21:55.104Z,8.73
2023-01-13T00:24:23.368Z,8.72
2023-01-13T00:26:52.970Z,8.71
2023-01-13T00:29:21.151Z,8.70
2023-01-13T00:31:50.137Z,8.71
2023-01-13T00:34:18.419Z,8.71
2023-01-13T00:36:49.253Z,8.71
2023-01-13T00:39:17.253Z,8.71
2023-01-13T00:42:04.365Z,8.72
2023-01-13T00:44:51.411Z,8.72
2023-01-13T00:47:19.525Z,8.72
2023-01-13T00:49:47.595Z,8.75
2023-01-13T00:52:16.390Z,8.77
2023-01-13T00:54:49.287Z,8.78
2023-01-13T00:57:19.803Z,8.78
2023-01-13T00:59:49.655Z,8.77
2023-01-13T01:02:18.067Z,8.77
2023-01-13T01:04:46.427Z,8.76
2023-01-13T01:07:14.468Z,8.77
2023-01-13T01:09:42.609Z,8.77
2023-01-13T01:12:10.833Z,8.77
2023-01-13T01:14:38.857Z,8.78
2023-01-13T01:17:07.035Z,8.77
2023-01-13T01:19:37.558Z,8.77
2023-01-13T01:22:05.708Z,8.78
2023-01-13T01:24:33.915Z,8.79
2023-01-13T01:27:03.943Z,8.80
2023-01-13T01:29:32.100Z,8.80
2023-01-13T01:32:00.163Z,8.79
2023-01-13T01:34:28.240Z,8.79
2023-01-13T01:36:56.311Z,8.79
2023-01-13T01:39:24.457Z,8.79
2023-01-13T01:42:11.702Z,8.79
2023-01-13T01:44:42.644Z,8.80
2023-01-13T01:47:14.614Z,8.82
2023-01-13T01:49:44.351Z,8.84
2023-01-13T01:52:17.024Z,8.83
2023-01-13T01:55:10.724Z,8.84
2023-01-13T01:57:45.738Z,8.84
2023-01-13T02:00:32.683Z,8.85
2023-01-13T02:03:01.570Z,8.87
2023-01-13T02:05:29.755Z,8.88
2023-01-13T02:08:00.070Z,8.89
2023-01-13T02:10:34.426Z,8.91
2023-01-13T02:13:06.819Z,8.91
2023-01-13T02:16:15.485Z,8.91
2023-01-13T02:18:43.997Z,8.91
2023-01-13T02:21:36.336Z,8.92
2023-01-13T02:24:54.584Z,8.92
2023-01-13T02:27:51.124Z,8.92
2023-01-13T02:31:06.412Z,8.91
2023-01-13T02:33:42.367Z,8.88
2023-01-13T02:36:43.912Z,8.88
2023-01-13T02:39:23.778Z,8.86
2023-01-13T02:42:24.192Z,8.85
2023-01-13T02:45:02.143Z,8.86
2023-01-13T02:47:36.055Z,8.86
2023-01-13T02:50:08.971Z,8.84
2023-01-13T02:53:12.215Z,8.82
2023-01-13T02:55:48.734Z,8.80
2023-01-13T02:58:21.334Z,8.79
2023-01-13T03:00:49.534Z,8.79
2023-01-13T03:03:18.013Z,8.78
2023-01-13T03:05:52.068Z,8.79
2023-01-13T03:08:39.606Z,8.81
2023-01-13T03:11:14.244Z,8.84
2023-01-13T03:14:19.287Z,8.84
2023-01-13T03:17:20.634Z,8.83
2023-01-13T03:20:05.007Z,8.83
2023-01-13T03:22:55.795Z,8.82
2023-01-13T03:25:31.919Z,8.83
2023-01-13T03:28:08.728Z,8.84
2023-01-13T03:31:03.706Z,8.85
2023-01-13T03:33:39.655Z,8.85
2023-01-13T03:36:11.552Z,8.86
2023-01-13T03:38:45.049Z,8.85
2023-01-13T03:41:19.128Z,8.84
2023-01-13T03:44:22.476Z,8.83
2023-01-13T03:46:56.388Z,8.83
2023-01-13T03:49:30.412Z,8.83
2023-01-13T03:52:04.594Z,8.85
2023-01-13T03:54:38.397Z,8.89
2023-01-13T03:57:12.308Z,8.91
2023-01-13T03:59:46.980Z,8.92
2023-01-13T04:02:36.438Z,8.91
2023-01-13T04:05:09.450Z,8.90
2023-01-13T04:08:16.921Z,8.90
2023-01-13T04:10:49.341Z,8.92
2023-01-13T04:13:39.959Z,8.94
2023-01-13T04:16:11.329Z,8.95
2023-01-13T04:18:40.032Z,8.95
2023-01-13T04:21:08.329Z,8.94
2023-01-13T04:23:36.949Z,8.94
2023-01-13T04:26:05.124Z,8.94
2023-01-13T04:28:35.081Z,8.93
2023-01-13T04:31:03.586Z,8.94
2023-01-13T04:33:31.700Z,8.93
2023-01-13T04:35:59.758Z,8.94
2023-01-13T04:38:30.099Z,8.97
2023-01-13T04:40:58.271Z,8.98
2023-01-13T04:43:26.308Z,8.99
2023-01-13T04:45:54.578Z,8.97
2023-01-13T04:48:22.666Z,8.97
2023-01-13T04:50:50.659Z,8.98
2023-01-13T04:53:18.822Z,8.99
2023-01-13T04:55:48.042Z,9.01
2023-01-13T04:58:16.092Z,9.02
2023-01-13T05:00:44.369Z,9.04
2023-01-13T05:03:12.444Z,9.04
2023-01-13T05:05:59.356Z,9.02
2023-01-13T05:08:27.426Z,9.01
2023-01-13T05:10:55.706Z,9.00
2023-01-13T05:13:42.625Z,8.99
2023-01-13T05:16:48.273Z,9.00
2023-01-13T05:19:16.839Z,9.01
2023-01-13T05:22:03.488Z,9.03
2023-01-13T05:24:57.812Z,9.05
2023-01-13T05:27:26.225Z,9.05
2023-01-13T05:29:55.145Z,9.05
2023-01-13T05:32:24.002Z,9.07
2023-01-13T05:34:52.071Z,9.09
2023-01-13T05:37:20.266Z,9.10
2023-01-13T05:40:06.671Z,9.11
2023-01-13T05:42:53.325Z,9.12
2023-01-13T05:45:21.631Z,9.13
2023-01-13T05:47:49.805Z,9.13
2023-01-13T05:50:18.185Z,9.12
2023-01-13T05:52:46.253Z,9.11
2023-01-13T05:55:16.460Z,9.10
2023-01-13T05:57:44.884Z,9.11
2023-01-13T06:00:13.520Z,9.11
2023-01-13T06:03:00.272Z,9.09
2023-01-13T06:05:33.344Z,9.09
2023-01-13T06:08:03.684Z,9.09
2023-01-13T06:10:50.461Z,9.08
2023-01-13T06:13:18.748Z,9.09
2023-01-13T06:15:46.894Z,9.09
2023-01-13T06:18:15.122Z,9.11
2023-01-13T06:20:43.271Z,9.13
2023-01-13T06:23:12.067Z,9.15
2023-01-13T06:25:48.020Z,9.17
2023-01-13T06:28:16.288Z,9.17
2023-01-13T06:30:51.341Z,9.18
2023-01-13T06:33:26.825Z,9.20
2023-01-13T06:36:03.024Z,9.22
2023-01-13T06:38:37.556Z,9.23
2023-01-13T06:41:08.188Z,9.26
2023-01-13T06:43:36.568Z,9.29
2023-01-13T06:46:05.124Z,9.30
2023-01-13T06:48:35.692Z,9.32
2023-01-13T06:51:08.153Z,9.33
2023-01-13T06:53:36.521Z,9.32
2023-01-13T06:56:05.027Z,9.33
2023-01-13T06:58:52.142Z,9.35
2023-01-13T07:01:20.300Z,9.37
2023-01-13T07:03:48.483Z,9.39
2023-01-13T07:06:20.663Z,9.40
2023-01-13T07:08:48.918Z,9.40
2023-01-13T07:11:17.030Z,9.39
2023-01-13T07:14:04.112Z,9.38
2023-01-13T07:16:32.405Z,9.38
2023-01-13T07:19:23.895Z,9.38
2023-01-13T07:21:52.815Z,9.39
2023-01-13T07:24:20.962Z,9.40
2023-01-13T07:26:51.388Z,9.41
2023-01-13T07:29:19.987Z,9.41
2023-01-13T07:31:50.139Z,9.41
2023-01-13T07:34:18.678Z,9.42
2023-01-13T07:36:47.050Z,9.42
2023-01-13T07:39:15.072Z,9.43
2023-01-13T07:42:01.729Z,9.43
2023-01-13T07:44:30.060Z,9.44
2023-01-13T07:46:58.179Z,9.43
2023-01-13T07:49:26.194Z,9.44
2023-01-13T07:51:54.536Z,9.45
2023-01-13T07:54:39.115Z,9.44
2023-01-13T07:57:26.968Z,9.43
2023-01-13T07:59:55.552Z,9.43
2023-01-13T08:02:24.287Z,9.43
2023-01-13T08:04:53.380Z,9.43
2023-01-13T08:07:21.552Z,9.45
2023-01-13T08:09:49.842Z,9.45
2023-01-13T08:12:38.654Z,9.44
2023-01-13T08:15:10.065Z,9.43
2023-01-13T08:17:38.282Z,9.44
2023-01-13T08:20:07.313Z,9.45
2023-01-13T08:22:35.486Z,9.46
2023-01-13T08:25:04.191Z,9.46
2023-01-13T08:27:50.987Z,9.48
2023-01-13T08:30:19.758Z,9.48
2023-01-13T08:32:49.683Z,9.49
2023-01-13T08:35:18.783Z,9.49
2023-01-13T08:37:48.613Z,9.51
2023-01-13T08:40:19.110Z,9.52
2023-01-13T08:42:48.685Z,9.54
2023-01-13T08:45:17.099Z,9.55
2023-01-13T08:47:45.176Z,9.56
2023-01-13T08:50:13.663Z,9.57
2023-01-13T08:52:42.138Z,9.56
2023-01-13T08:55:11.423Z,9.58
2023-01-13T08:57:39.566Z,9.60
2023-01-13T09:00:12.904Z,9.60
2023-01-13T09:02:41.221Z,9.60
2023-01-13T09:05:10.910Z,9.61
2023-01-13T09:07:39.782Z,9.63
2023-01-13T09:10:26.635Z,9.64
2023-01-13T09:13:12.619Z,9.66
2023-01-13T09:15:59.880Z,9.68
2023-01-13T09:18:27.969Z,9.69
2023-01-13T09:20:56.250Z,9.70
2023-01-13T09:23:26.374Z,9.70
2023-01-13T09:25:54.419Z,9.71
2023-01-13T09:28:22.512Z,9.70
2023-01-13T09:30:50.663Z,9.69
2023-01-13T09:33:37.608Z,9.69
2023-01-13T09:36:06.446Z,9.70
2023-01-13T09:38:34.561Z,9.71
2023-01-13T09:41:23.427Z,9.70
2023-01-13T09:43:57.772Z,9.71
2023-01-13T09:46:49.908Z,9.70
2023-01-13T09:49:33.586Z,9.71
2023-01-13T09:52:15.330Z,9.71
2023-01-13T09:55:05.200Z,9.71
2023-01-13T09:57:52.618Z,9.72
2023-01-13T10:00:44.948Z,9.72
2023-01-13T10:03:26.166Z,9.74
2023-01-13T10:06:22.475Z,9.74
2023-01-13T10:08:51.411Z,9.74
2023-01-13T10:11:40.401Z,9.75
2023-01-13T10:14:42.586Z,9.76
2023-01-13T10:17:29.812Z,9.75
2023-01-13T10:20:18.372Z,9.71
2023-01-13T10:22:53.964Z,9.66
2023-01-13T10:25:36.415Z,9.64
2023-01-13T10:28:13.614Z,9.64
2023-01-13T10:30:46.896Z,9.64
2023-01-13T10:33:22.015Z,9.63
2023-01-13T10:36:23.192Z,9.67
2023-01-13T10:38:51.829Z,9.71
2023-01-13T10:41:27.891Z,9.74
2023-01-13T10:44:02.336Z,9.76
2023-01-13T10:46:49.867Z,9.80
2023-01-13T10:49:50.769Z,9.83
2023-01-13T10:52:28.719Z,9.88
2023-01-13T10:54:58.114Z,9.92
2023-01-13T10:57:27.838Z,9.95
2023-01-13T11:00:30.308Z,9.97
2023-01-13T11:03:16.784Z,10.00
2023-01-13T11:05:54.103Z,10.03
2023-01-13T11:08:25.634Z,10.07
2023-01-13T11:10:57.762Z,10.16
2023-01-13T11:14:03.774Z,10.26
2023-01-13T11:16:33.243Z,10.48
2023-01-13T11:19:14.203Z,10.64
2023-01-13T11:22:09.569Z,10.76
2023-01-13T11:24:50.786Z,10.83
2023-01-13T11:27:49.583Z,10.85
2023-01-13T11:30:52.553Z,10.88
2023-01-13T11:33:30.821Z,10.93
2023-01-13T11:36:06.892Z,11.06
2023-01-13T11:38:52.067Z,11.24
2023-01-13T11:41:41.736Z,11.38
2023-01-13T11:44:10.219Z,11.57
2023-01-13T11:46:43.635Z,11.70
2023-01-13T11:49:29.512Z,11.75
2023-01-13T11:52:12.938Z,11.74
2023-01-13T11:54:58.412Z,11.74
2023-01-13T11:57:51.673Z,11.93
2023-01-13T12:00:28.990Z,12.20
2023-01-13T12:03:23.397Z,12.31
2023-01-13T12:06:13.640Z,12.29
2023-01-13T12:08:58.017Z,12.21
2023-01-13T12:12:15.040Z,12.09
2023-01-13T12:15:06.441Z,11.92
2023-01-13T12:18:08.200Z,11.79
2023-01-13T12:21:24.513Z,11.68
2023-01-13T12:24:05.585Z,11.55
2023-01-13T12:26:39.021Z,11.44
2023-01-13T12:29:13.207Z,11.33
2023-01-13T12:31:43.473Z,11.27
2023-01-13T12:34:33.297Z,11.21
2023-01-13T12:37:07.705Z,11.11
2023-01-13T12:40:16.619Z,11.05
2023-01-13T12:43:06.927Z,10.99
2023-01-13T12:45:35.338Z,10.92
2023-01-13T12:48:05.235Z,10.87
2023-01-13T12:50:37.674Z,10.82
2023-01-13T12:53:35.613Z,10.82
2023-01-13T12:56:30.806Z,10.85
2023-01-13T12:59:17.794Z,10.91
2023-01-13T13:01:48.785Z,10.95
2023-01-13T13:04:41.586Z,10.99
2023-01-13T13:07:14.923Z,11.00
2023-01-13T13:09:53.246Z,10.98
2023-01-13T13:12:49.374Z,10.94
2023-01-13T13:15:29.576Z,10.91
2023-01-13T13:18:21.097Z,10.88
2023-01-13T13:20:58.884Z,10.83
2023-01-13T13:23:48.125Z,10.79
2023-01-13T13:26:25.437Z,10.77
2023-01-13T13:29:14.918Z,10.75
2023-01-13T13:31:49.171Z,10.75
2023-01-13T13:34:32.381Z,10.71
2023-01-13T13:37:19.981Z,10.66
2023-01-13T13:40:07.308Z,10.63
2023-01-13T13:43:06.209Z,10.59
2023-01-13T13:45:53.274Z,10.57
2023-01-13T13:48:30.745Z,10.54
2023-01-13T13:51:41.230Z,10.50
2023-01-13T13:54:14.013Z,10.45
2023-01-13T13:56:45.611Z,10.43
2023-01-13T13:59:18.610Z,10.42
2023-01-13T14:01:53.819Z,10.41
2023-01-13T14:04:27.579Z,10.39
2023-01-13T14:07:05.427Z,10.36
2023-01-13T14:09:45.972Z,10.33
2023-01-13T14:12:20.567Z,10.28
2023-01-13T14:14:50.034Z,10.24
2023-01-13T14:17:38.671Z,10.21
2023-01-13T14:20:14.906Z,10.16
2023-01-13T14:22:52.275Z,10.12
2023-01-13T14:25:32.700Z,10.07
2023-01-13T14:28:20.890Z,10.03
2023-01-13T14:31:09.552Z,9.99
2023-01-13T14:33:50.511Z,9.95
2023-01-13T14:36:24.248Z,9.91
2023-01-13T14:39:05.388Z,9.89
2023-01-13T14:41:36.126Z,9.88
2023-01-13T14:44:36.826Z,9.87
2023-01-13T14:47:21.111Z,9.85
2023-01-13T14:50:11.084Z,9.83
2023-01-13T14:53:02.509Z,9.78
2023-01-13T14:55:38.673Z,9.74
2023-01-13T14:58:38.275Z,9.71
2023-01-13T15:01:29.066Z,9.66
2023-01-13T15:04:16.996Z,9.65
2023-01-13T15:06:51.511Z,9.63
2023-01-13T15:09:33.505Z,9.62
2023-01-13T15:12:35.984Z,9.60
2023-01-13T15:15:25.262Z,9.59
2023-01-13T15:17:53.883Z,9.56
2023-01-13T15:20:24.088Z,9.55
2023-01-13T15:23:11.288Z,9.57
2023-01-13T15:25:43.784Z,9.57
2023-01-13T15:28:21.400Z,9.58
2023-01-13T15:30:53.485Z,9.56
2023-01-13T15:33:22.249Z,9.55
2023-01-13T15:36:20.913Z,9.50
2023-01-13T15:38:49.608Z,9.45
2023-01-13T15:41:18.003Z,9.41
2023-01-13T15:44:09.191Z,9.38
2023-01-13T15:46:40.356Z,9.36
2023-01-13T15:49:35.060Z,9.33
2023-01-13T15:52:18.050Z,9.31
2023-01-13T15:54:46.221Z,9.28
2023-01-13T15:57:29.557Z,9.25
2023-01-13T16:00:20.341Z,9.21
2023-01-13T16:02:54.571Z,9.19
2023-01-13T16:05:22.668Z,9.17
2023-01-13T16:07:51.159Z,9.14
2023-01-13T16:10:25.770Z,9.12
2023-01-13T16:12:55.971Z,9.10
2023-01-13T16:15:25.100Z,9.07
2023-01-13T16:17:59.954Z,9.04
2023-01-13T16:20:28.116Z,9.00
2023-01-13T16:22:56.264Z,8.97
2023-01-13T16:25:26.998Z,8.97
2023-01-13T16:28:26.676Z,8.94
2023-01-13T16:30:54.916Z,8.91
2023-01-13T16:33:23.107Z,8.88
2023-01-13T16:36:10.288Z,8.85
2023-01-13T16:38:39.398Z,8.81
2023-01-13T16:41:07.869Z,8.77
2023-01-13T16:43:36.474Z,8.77
2023-01-13T16:46:25.978Z,8.74
2023-01-13T16:48:57.402Z,8.73
2023-01-13T16:51:25.595Z,8.71
2023-01-13T16:53:53.815Z,8.68
2023-01-13T16:56:31.193Z,8.62
2023-01-13T16:59:13.757Z,8.57
2023-01-13T17:01:44.911Z,8.53
2023-01-13T17:04:21.787Z,8.49
2023-01-13T17:07:08.486Z,8.46
2023-01-13T17:09:40.673Z,8.42
2023-01-13T17:12:27.859Z,8.38
2023-01-13T17:15:16.882Z,8.34
2023-01-13T17:17:52.025Z,8.30
2023-01-13T17:20:38.489Z,8.25
2023-01-13T17:23:25.603Z,8.22
2023-01-13T17:25:54.886Z,8.20
2023-01-13T17:28:23.068Z,8.18
2023-01-13T17:30:51.556Z,8.17
2023-01-13T17:33:19.618Z,8.14
2023-01-13T17:35:47.809Z,8.11
2023-01-13T17:38:16.629Z,8.09
2023-01-13T17:40:44.710Z,8.07
2023-01-13T17:43:12.753Z,8.06
2023-01-13T17:45:41.864Z,8.05
2023-01-13T17:48:10.127Z,8.03
2023-01-13T17:50:38.808Z,8.01
2023-01-13T17:53:07.074Z,7.99
2023-01-13T17:55:35.441Z,7.99
2023-01-13T17:58:03.510Z,7.99
2023-01-13T18:00:31.886Z,7.99
2023-01-13T18:02:59.979Z,7.96
2023-01-13T18:05:28.646Z,7.95
2023-01-13T18:08:01.220Z,7.94
2023-01-13T18:10:29.700Z,7.93
2023-01-13T18:12:57.725Z,7.93
2023-01-13T18:15:48.985Z,7.94
2023-01-13T18:18:17.270Z,7.97
2023-01-13T18:21:04.684Z,7.99
2023-01-13T18:24:01.898Z,7.99
2023-01-13T18:26:49.260Z,7.99
2023-01-13T18:29:17.335Z,7.97
2023-01-13T18:32:04.345Z,7.95
2023-01-13T18:34:36.953Z,7.95
2023-01-13T18:37:06.972Z,7.98
2023-01-13T18:39:37.569Z,8.01
2023-01-13T18:42:26.514Z,8.02
2023-01-13T18:45:13.546Z,8.03
2023-01-13T18:47:46.660Z,8.03
2023-01-13T18:50:35.038Z,8.02
2023-01-13T18:53:03.574Z,8.03
2023-01-13T18:55:31.849Z,8.04
2023-01-13T18:58:00.545Z,8.06
2023-01-13T19:00:47.237Z,8.09
2023-01-13T19:03:29.542Z,8.12
2023-01-13T19:06:07.590Z,8.14
2023-01-13T19:08:36.777Z,8.14
2023-01-13T19:11:08.192Z,8.12
2023-01-13T19:13:37.090Z,8.10
2023-01-13T19:16:23.799Z,8.07
2023-01-13T19:18:51.883Z,8.06
2023-01-13T19:21:20.248Z,8.05
2023-01-13T19:23:48.619Z,8.03
2023-01-13T19:26:16.667Z,8.01
2023-01-13T19:28:44.762Z,7.99
2023-01-13T19:31:12.968Z,7.97
2023-01-13T19:33:41.155Z,7.92
2023-01-13T19:36:10.507Z,7.89
2023-01-13T19:38:38.570Z,7.86
2023-01-13T19:41:43.966Z,7.81
2023-01-13T19:44:31.046Z,7.78
2023-01-13T19:46:59.068Z,7.74
2023-01-13T19:49:30.400Z,7.71
2023-01-13T19:51:58.749Z,7.67
2023-01-13T19:54:27.030Z,7.64
2023-01-13T19:57:15.286Z,7.62
2023-01-13T19:59:43.350Z,7.62
2023-01-13T20:02:28.436Z,7.60
2023-01-13T20:04:58.355Z,7.58
2023-01-13T20:07:29.000Z,7.53
2023-01-13T20:09:57.740Z,7.48
2023-01-13T20:12:26.563Z,7.45
2023-01-13T20:14:55.004Z,7.44
2023-01-13T20:17:25.741Z,7.41
2023-01-13T20:19:54.017Z,7.40
2023-01-13T20:22:24.445Z,7.38
2023-01-13T20:24:55.476Z,7.35
2023-01-13T20:27:43.729Z,7.34
2023-01-13T20:30:16.208Z,7.33
2023-01-13T20:32:44.691Z,7.32
2023-01-13T20:35:13.170Z,7.30
2023-01-13T20:38:00.283Z,7.28
2023-01-13T20:40:28.767Z,7.27
2023-01-13T20:42:57.241Z,7.25
2023-01-13T20:45:44.363Z,7.24
2023-01-13T20:48:12.346Z,7.23
2023-01-13T20:50:40.379Z,7.24
2023-01-13T20:53:09.186Z,7.23
2023-01-13T20:55:39.901Z,7.22
2023-01-13T20:58:07.877Z,7.21
2023-01-13T21:00:36.123Z,7.21
2023-01-13T21:03:04.451Z,7.22
2023-01-13T21:05:35.075Z,7.22
2023-01-13T21:08:03.809Z,7.21
2023-01-13T21:10:32.083Z,7.21
2023-01-13T21:13:23.389Z,7.20
2023-01-13T21:15:52.454Z,7.17
2023-01-13T21:18:39.329Z,7.15
2023-01-13T21:21:14.001Z,7.11
2023-01-13T21:23:44.407Z,7.10
2023-01-13T21:26:12.689Z,7.10
2023-01-13T21:28:40.793Z,7.09
2023-01-13T21:31:10.163Z,7.09
2023-01-13T21:33:38.746Z,7.07
2023-01-13T21:36:08.415Z,7.05
2023-01-13T21:38:36.523Z,7.02
2023-01-13T21:41:07.996Z,6.99
2023-01-13T21:43:56.270Z,6.97
2023-01-13T21:46:57.284Z,6.96
2023-01-13T21:49:25.333Z,6.95
2023-01-13T21:51:53.628Z,6.93
2023-01-13T21:54:21.783Z,6.91
2023-01-13T21:57:08.809Z,6.88
2023-01-13T21:59:36.809Z,6.86
2023-01-13T22:02:25.411Z,6.86
2023-01-13T22:04:54.008Z,6.85
2023-01-13T22:07:21.999Z,6.85
2023-01-13T22:09:50.047Z,6.84
2023-01-13T22:12:37.207Z,6.82
2023-01-13T22:15:29.413Z,6.81
2023-01-13T22:17:57.676Z,6.82
2023-01-13T22:20:26.466Z,6.80
2023-01-13T22:22:54.742Z,6.80
2023-01-13T22:25:23.740Z,6.79
2023-01-13T22:28:14.038Z,6.77
2023-01-13T22:30:42.512Z,6.75
2023-01-13T22:33:10.580Z,6.74
2023-01-13T22:35:38.754Z,6.75
2023-01-13T22:38:07.067Z,6.75
2023-01-13T22:40:35.105Z,6.73
2023-01-13T22:43:03.152Z,6.71
2023-01-13T22:45:31.309Z,6.70
2023-01-13T22:47:59.423Z,6.71
2023-01-13T22:50:27.795Z,6.72
2023-01-13T22:52:55.942Z,6.72
2023-01-13T22:55:23.949Z,6.72
2023-01-13T22:57:52.121Z,6.71
2023-01-13T23:00:20.795Z,6.70
2023-01-13T23:02:48.779Z,6.70
2023-01-13T23:05:35.881Z,6.70
2023-01-13T23:08:04.179Z,6.70
2023-01-13T23:10:32.556Z,6.70
2023-01-13T23:13:00.881Z,6.71
2023-01-13T23:15:34.929Z,6.72
2023-01-13T23:18:03.715Z,6.72
2023-01-13T23:20:31.852Z,6.71
2023-01-13T23:22:59.919Z,6.72
2023-01-13T23:25:28.133Z,6.75
2023-01-13T23:27:56.231Z,6.78
2023-01-13T23:30:24.202Z,6.79
2023-01-13T23:32:52.345Z,6.80
2023-01-13T23:35:20.387Z,6.81
2023-01-13T23:37:48.594Z,6.83
2023-01-13T23:40:16.761Z,6.84
2023-01-13T23:42:49.237Z,6.86
2023-01-13T23:45:36.304Z,6.89
2023-01-13T23:48:05.452Z,6.91
2023-01-13T23:50:33.828Z,6.93
2023-01-13T23:53:20.842Z,6.94
2023-01-13T23:55:48.834Z,6.95
2023-01-13T23:58:16.989Z,6.95
